sensor_id;sensor_type;location;lat;lon;timestamp;pressure;altitude;pressure_sealevel;temperature;humidity
48968;BME280;46511;53.148;8.204;2023-06-01T00:01:44;102382.91;;;14.15;100.00
48968;BME280;46511;53.148;8.204;2023-06-01T00:04:16;102376.38;;;14.01;100.00
48968;BME280;46511;53.148;8.204;2023-06-01T00:06:43;102382.03;;;13.95;100.00
48968;BME280;46511;53.148;8.204;2023-06-01T00:09:14;102379.47;;;13.92;100.00
48968;BME280;46511;53.148;8.204;2023-06-01T00:11:46;102381.84;;;13.80;100.00
48968;BME280;46511;53.148;8.204;2023-06-01T00:14:17;102377.63;;;13.94;100.00
48968;BME280;46511;53.148;8.204;2023-06-01T00:16:49;102376.88;;;13.91;100.00
48968;BME280;46511;53.148;8.204;2023-06-01T00:19:23;102381.78;;;13.61;100.00
48968;BME280;46511;53.148;8.204;2023-06-01T00:21:57;102381.38;;;13.70;100.00
48968;BME280;46511;53.148;8.204;2023-06-01T00:24:28;102366.69;;;13.80;100.00
48968;BME280;46511;53.148;8.204;2023-06-01T00:26:59;102362.13;;;14.03;100.00
48968;BME280;46511;53.148;8.204;2023-06-01T00:29:30;102369.16;;;13.85;100.00
48968;BME280;46511;53.148;8.204;2023-06-01T00:32:02;102368.69;;;13.55;100.00
48968;BME280;46511;53.148;8.204;2023-06-01T00:34:33;102360.91;;;13.89;100.00
48968;BME280;46511;53.148;8.204;2023-06-01T00:37:04;102361.53;;;13.96;100.00
48968;BME280;46511;53.148;8.204;2023-06-01T00:39:36;102361.44;;;13.97;100.00
48968;BME280;46511;53.148;8.204;2023-06-01T00:42:07;102356.41;;;13.71;100.00
48968;BME280;46511;53.148;8.204;2023-06-01T00:44:39;102354.41;;;13.76;100.00
48968;BME280;46511;53.148;8.204;2023-06-01T00:47:10;102356.59;;;13.87;100.00
48968;BME280;46511;53.148;8.204;2023-06-01T00:49:42;102365.00;;;14.17;100.00
48968;BME280;46511;53.148;8.204;2023-06-01T00:52:13;102361.53;;;13.96;100.00
48968;BME280;46511;53.148;8.204;2023-06-01T00:54:45;102359.41;;;13.84;100.00
48968;BME280;46511;53.148;8.204;2023-06-01T00:57:16;102356.63;;;14.06;100.00
48968;BME280;46511;53.148;8.204;2023-06-01T00:59:48;102359.06;;;14.10;100.00
48968;BME280;46511;53.148;8.204;2023-06-01T01:02:19;102359.75;;;13.76;100.00
48968;BME280;46511;53.148;8.204;2023-06-01T01:04:52;102358.44;;;13.66;100.00
48968;BME280;46511;53.148;8.204;2023-06-01T01:07:21;102354.06;;;13.63;100.00
48968;BME280;46511;53.148;8.204;2023-06-01T01:10:09;102356.88;;;13.99;100.00
48968;BME280;46511;53.148;8.204;2023-06-01T01:12:51;102359.28;;;13.66;100.00
48968;BME280;46511;53.148;8.204;2023-06-01T01:21:05;102359.75;;;13.76;100.00
48968;BME280;46511;53.148;8.204;2023-06-01T01:29:26;102350.22;;;13.89;100.00
48968;BME280;46511;53.148;8.204;2023-06-01T01:32:02;102347.75;;;13.66;100.00
48968;BME280;46511;53.148;8.204;2023-06-01T01:34:35;102349.19;;;13.93;100.00
48968;BME280;46511;53.148;8.204;2023-06-01T01:37:08;102351.44;;;14.03;100.00
48968;BME280;46511;53.148;8.204;2023-06-01T01:39:39;102343.72;;;13.76;100.00
48968;BME280;46511;53.148;8.204;2023-06-01T01:42:11;102343.84;;;13.73;100.00
48968;BME280;46511;53.148;8.204;2023-06-01T01:44:43;102343.06;;;13.71;100.00
48968;BME280;46511;53.148;8.204;2023-06-01T01:47:16;102345.25;;;14.00;100.00
48968;BME280;46511;53.148;8.204;2023-06-01T01:49:53;102337.75;;;13.90;100.00
48968;BME280;46511;53.148;8.204;2023-06-01T01:52:32;102336.97;;;14.07;100.00
48968;BME280;46511;53.148;8.204;2023-06-01T01:55:09;102335.84;;;14.12;100.00
48968;BME280;46511;53.148;8.204;2023-06-01T01:57:42;102335.22;;;13.87;100.00
48968;BME280;46511;53.148;8.204;2023-06-01T02:00:15;102337.97;;;13.85;100.00
48968;BME280;46511;53.148;8.204;2023-06-01T02:02:46;102327.06;;;13.90;100.00
48968;BME280;46511;53.148;8.204;2023-06-01T02:05:18;102328.00;;;14.08;100.00
48968;BME280;46511;53.148;8.204;2023-06-01T02:07:49;102323.31;;;13.55;100.00
48968;BME280;46511;53.148;8.204;2023-06-01T02:10:21;102326.34;;;13.86;100.00
48968;BME280;46511;53.148;8.204;2023-06-01T02:12:52;102326.56;;;14.00;100.00
48968;BME280;46511;53.148;8.204;2023-06-01T02:15:23;102329.13;;;13.83;100.00
48968;BME280;46511;53.148;8.204;2023-06-01T02:17:55;102322.06;;;13.82;100.00
48968;BME280;46511;53.148;8.204;2023-06-01T02:20:26;102322.16;;;13.99;100.00
48968;BME280;46511;53.148;8.204;2023-06-01T02:22:57;102322.06;;;13.82;100.00
48968;BME280;46511;53.148;8.204;2023-06-01T02:25:24;102319.00;;;13.71;100.00
48968;BME280;46511;53.148;8.204;2023-06-01T02:27:55;102318.63;;;13.60;100.00
48968;BME280;46511;53.148;8.204;2023-06-01T02:30:26;102322.03;;;13.84;100.00
48968;BME280;46511;53.148;8.204;2023-06-01T02:32:58;102321.09;;;14.04;100.00
48968;BME280;46511;53.148;8.204;2023-06-01T02:35:29;102317.75;;;13.98;100.00
48968;BME280;46511;53.148;8.204;2023-06-01T02:38:01;102316.19;;;13.94;100.00
48968;BME280;46511;53.148;8.204;2023-06-01T02:40:32;102325.38;;;13.68;100.00
48968;BME280;46511;53.148;8.204;2023-06-01T02:43:03;102326.91;;;13.54;100.00
48968;BME280;46511;53.148;8.204;2023-06-01T02:45:34;102327.44;;;13.62;100.00
48968;BME280;46511;53.148;8.204;2023-06-01T02:48:06;102328.53;;;13.58;100.00
48968;BME280;46511;53.148;8.204;2023-06-01T02:50:37;102320.56;;;13.77;100.00
48968;BME280;46511;53.148;8.204;2023-06-01T02:53:03;102317.38;;;13.87;100.00
48968;BME280;46511;53.148;8.204;2023-06-01T02:55:36;102314.72;;;13.87;100.00
48968;BME280;46511;53.148;8.204;2023-06-01T02:58:07;102317.56;;;13.64;100.00
48968;BME280;46511;53.148;8.204;2023-06-01T03:00:45;102317.69;;;13.61;100.00
48968;BME280;46511;53.148;8.204;2023-06-01T03:03:17;102314.63;;;13.70;100.00
48968;BME280;46511;53.148;8.204;2023-06-01T03:05:49;102312.69;;;13.92;100.00
48968;BME280;46511;53.148;8.204;2023-06-01T03:08:20;102313.09;;;13.83;100.00
48968;BME280;46511;53.148;8.204;2023-06-01T03:10:52;102308.69;;;14.03;100.00
48968;BME280;46511;53.148;8.204;2023-06-01T03:13:23;102306.91;;;14.01;100.00
48968;BME280;46511;53.148;8.204;2023-06-01T03:15:55;102311.22;;;13.66;100.00
48968;BME280;46511;53.148;8.204;2023-06-01T03:18:26;102309.53;;;13.64;100.00
48968;BME280;46511;53.148;8.204;2023-06-01T03:20:58;102309.19;;;13.71;100.00
48968;BME280;46511;53.148;8.204;2023-06-01T03:23:29;102312.72;;;13.72;100.00
48968;BME280;46511;53.148;8.204;2023-06-01T03:26:01;102308.06;;;13.77;100.00
48968;BME280;46511;53.148;8.204;2023-06-01T03:28:35;102302.06;;;13.72;100.00
48968;BME280;46511;53.148;8.204;2023-06-01T03:31:06;102308.63;;;13.65;100.00
48968;BME280;46511;53.148;8.204;2023-06-01T03:33:38;102307.06;;;13.98;100.00
48968;BME280;46511;53.148;8.204;2023-06-01T03:36:10;102303.72;;;13.56;100.00
48968;BME280;46511;53.148;8.204;2023-06-01T03:38:41;102308.91;;;13.59;100.00
48968;BME280;46511;53.148;8.204;2023-06-01T03:41:13;102295.75;;;13.54;100.00
48968;BME280;46511;53.148;8.204;2023-06-01T03:43:45;102299.81;;;13.63;100.00
48968;BME280;46511;53.148;8.204;2023-06-01T03:46:16;102291.72;;;13.83;100.00
48968;BME280;46511;53.148;8.204;2023-06-01T03:48:48;102295.50;;;13.98;100.00
48968;BME280;46511;53.148;8.204;2023-06-01T03:51:22;102293.97;;;13.92;100.00
48968;BME280;46511;53.148;8.204;2023-06-01T03:53:53;102288.88;;;13.88;100.00
48968;BME280;46511;53.148;8.204;2023-06-01T03:56:24;102291.19;;;13.95;100.00
48968;BME280;46511;53.148;8.204;2023-06-01T03:58:57;102296.59;;;13.75;100.00
48968;BME280;46511;53.148;8.204;2023-06-01T04:01:28;102284.75;;;13.81;100.00
48968;BME280;46511;53.148;8.204;2023-06-01T04:04:00;102284.38;;;13.88;100.00
48968;BME280;46511;53.148;8.204;2023-06-01T04:06:32;102290.31;;;13.76;100.00
48968;BME280;46511;53.148;8.204;2023-06-01T04:09:06;102282.66;;;13.87;100.00
48968;BME280;46511;53.148;8.204;2023-06-01T04:11:38;102292.34;;;14.09;100.00
48968;BME280;46511;53.148;8.204;2023-06-01T04:14:10;102280.63;;;13.92;100.00
48968;BME280;46511;53.148;8.204;2023-06-01T04:16:42;102290.44;;;14.11;100.00
48968;BME280;46511;53.148;8.204;2023-06-01T04:19:13;102280.00;;;13.87;100.00
48968;BME280;46511;53.148;8.204;2023-06-01T04:21:44;102286.72;;;13.96;100.00
48968;BME280;46511;53.148;8.204;2023-06-01T04:24:16;102287.41;;;13.99;100.00
48968;BME280;46511;53.148;8.204;2023-06-01T04:26:47;102282.66;;;14.06;100.00
48968;BME280;46511;53.148;8.204;2023-06-01T04:29:20;102279.75;;;14.11;100.00
48968;BME280;46511;53.148;8.204;2023-06-01T04:31:52;102283.00;;;14.17;100.00
48968;BME280;46511;53.148;8.204;2023-06-01T04:34:25;102289.66;;;14.09;100.00
48968;BME280;46511;53.148;8.204;2023-06-01T04:36:57;102280.34;;;13.98;100.00
48968;BME280;46511;53.148;8.204;2023-06-01T04:39:28;102287.31;;;14.03;100.00
48968;BME280;46511;53.148;8.204;2023-06-01T04:42:00;102277.47;;;14.03;100.00
48968;BME280;46511;53.148;8.204;2023-06-01T04:44:32;102280.78;;;13.89;100.00
48968;BME280;46511;53.148;8.204;2023-06-01T04:47:05;102281.03;;;13.64;100.00
48968;BME280;46511;53.148;8.204;2023-06-01T04:49:36;102283.69;;;14.22;100.00
48968;BME280;46511;53.148;8.204;2023-06-01T04:52:08;102286.19;;;14.07;100.00
48968;BME280;46511;53.148;8.204;2023-06-01T04:54:41;102283.13;;;13.58;100.00
48968;BME280;46511;53.148;8.204;2023-06-01T04:57:12;102284.91;;;13.96;100.00
48968;BME280;46511;53.148;8.204;2023-06-01T04:59:44;102285.19;;;13.90;100.00
48968;BME280;46511;53.148;8.204;2023-06-01T05:02:16;102281.38;;;14.15;100.00
48968;BME280;46511;53.148;8.204;2023-06-01T05:04:47;102274.06;;;14.18;100.00
48968;BME280;46511;53.148;8.204;2023-06-01T05:07:18;102270.47;;;14.55;100.00
48968;BME280;46511;53.148;8.204;2023-06-01T05:09:55;102274.03;;;14.37;100.00
48968;BME280;46511;53.148;8.204;2023-06-01T05:12:26;102271.25;;;14.57;100.00
48968;BME280;46511;53.148;8.204;2023-06-01T05:14:58;102274.34;;;14.67;100.00
48968;BME280;46511;53.148;8.204;2023-06-01T05:17:30;102273.84;;;14.23;100.00
48968;BME280;46511;53.148;8.204;2023-06-01T05:20:01;102273.41;;;14.51;100.00
48968;BME280;46511;53.148;8.204;2023-06-01T05:22:34;102268.75;;;14.54;100.00
48968;BME280;46511;53.148;8.204;2023-06-01T05:25:06;102261.75;;;14.52;100.00
48968;BME280;46511;53.148;8.204;2023-06-01T05:27:38;102259.00;;;14.53;100.00
48968;BME280;46511;53.148;8.204;2023-06-01T05:30:10;102262.47;;;14.55;100.00
48968;BME280;46511;53.148;8.204;2023-06-01T05:32:41;102258.78;;;14.75;100.00
48968;BME280;46511;53.148;8.204;2023-06-01T05:35:08;102262.06;;;14.27;100.00
48968;BME280;46511;53.148;8.204;2023-06-01T05:37:39;102264.19;;;14.56;100.00
48968;BME280;46511;53.148;8.204;2023-06-01T05:40:11;102258.34;;;14.48;100.00
48968;BME280;46511;53.148;8.204;2023-06-01T05:42:42;102267.41;;;14.27;100.00
48968;BME280;46511;53.148;8.204;2023-06-01T05:45:14;102262.38;;;14.57;100.00
48968;BME280;46511;53.148;8.204;2023-06-01T05:47:45;102256.34;;;14.71;100.00
48968;BME280;46511;53.148;8.204;2023-06-01T05:50:16;102257.38;;;14.85;100.00
48968;BME280;46511;53.148;8.204;2023-06-01T05:52:48;102251.31;;;15.17;100.00
48968;BME280;46511;53.148;8.204;2023-06-01T05:55:19;102260.78;;;14.89;100.00
48968;BME280;46511;53.148;8.204;2023-06-01T05:57:51;102260.41;;;14.24;100.00
48968;BME280;46511;53.148;8.204;2023-06-01T06:00:22;102263.25;;;14.57;100.00
48968;BME280;46511;53.148;8.204;2023-06-01T06:02:54;102256.38;;;14.88;100.00
48968;BME280;46511;53.148;8.204;2023-06-01T06:05:25;102252.97;;;14.84;100.00
48968;BME280;46511;53.148;8.204;2023-06-01T06:07:57;102250.28;;;15.19;100.00
48968;BME280;46511;53.148;8.204;2023-06-01T06:10:28;102256.38;;;14.88;100.00
48968;BME280;46511;53.148;8.204;2023-06-01T06:12:59;102249.81;;;15.11;100.00
48968;BME280;46511;53.148;8.204;2023-06-01T06:15:31;102251.41;;;15.48;100.00
48968;BME280;46511;53.148;8.204;2023-06-01T06:17:57;102249.22;;;15.39;100.00
48968;BME280;46511;53.148;8.204;2023-06-01T06:20:29;102247.44;;;15.55;100.00
48968;BME280;46511;53.148;8.204;2023-06-01T06:23:00;102247.03;;;15.12;100.00
48968;BME280;46511;53.148;8.204;2023-06-01T06:25:32;102248.16;;;15.08;100.00
48968;BME280;46511;53.148;8.204;2023-06-01T06:28:03;102257.44;;;15.52;100.00
48968;BME280;46511;53.148;8.204;2023-06-01T06:30:34;102253.44;;;15.43;100.00
48968;BME280;46511;53.148;8.204;2023-06-01T06:33:01;102253.31;;;15.46;100.00
48968;BME280;46511;53.148;8.204;2023-06-01T06:35:32;102253.94;;;15.34;100.00
48968;BME280;46511;53.148;8.204;2023-06-01T06:38:03;102255.53;;;15.71;100.00
48968;BME280;46511;53.148;8.204;2023-06-01T06:40:35;102258.38;;;15.68;100.00
48968;BME280;46511;53.148;8.204;2023-06-01T06:43:06;102265.19;;;15.40;100.00
48968;BME280;46511;53.148;8.204;2023-06-01T06:45:37;102266.34;;;14.84;100.00
48968;BME280;46511;53.148;8.204;2023-06-01T06:48:08;102257.34;;;15.20;100.00
48968;BME280;46511;53.148;8.204;2023-06-01T06:50:40;102262.31;;;15.28;100.00
48968;BME280;46511;53.148;8.204;2023-06-01T06:53:15;102265.56;;;15.50;100.00
48968;BME280;46511;53.148;8.204;2023-06-01T06:55:46;102266.44;;;15.18;100.00
48968;BME280;46511;53.148;8.204;2023-06-01T06:58:18;102263.09;;;15.30;100.00
48968;BME280;46511;53.148;8.204;2023-06-01T07:00:49;102260.72;;;15.90;100.00
48968;BME280;46511;53.148;8.204;2023-06-01T07:03:20;102259.63;;;15.94;100.00
48968;BME280;46511;53.148;8.204;2023-06-01T07:05:52;102254.84;;;15.50;100.00
48968;BME280;46511;53.148;8.204;2023-06-01T07:08:23;102263.25;;;15.27;100.00
48968;BME280;46511;53.148;8.204;2023-06-01T07:10:54;102268.44;;;14.78;100.00
48968;BME280;46511;53.148;8.204;2023-06-01T07:13:27;102262.31;;;15.10;100.00
48968;BME280;46511;53.148;8.204;2023-06-01T07:15:58;102259.38;;;15.32;100.00
48968;BME280;46511;53.148;8.204;2023-06-01T07:18:29;102261.09;;;15.84;100.00
48968;BME280;46511;53.148;8.204;2023-06-01T07:20:57;102264.13;;;16.09;100.00
48968;BME280;46511;53.148;8.204;2023-06-01T07:23:29;102261.50;;;15.76;100.00
48968;BME280;46511;53.148;8.204;2023-06-01T07:26:01;102255.22;;;15.60;100.00
48968;BME280;46511;53.148;8.204;2023-06-01T07:28:27;102258.94;;;15.57;100.00
48968;BME280;46511;53.148;8.204;2023-06-01T07:30:59;102256.28;;;15.40;100.00
48968;BME280;46511;53.148;8.204;2023-06-01T07:33:31;102261.88;;;16.02;100.00
48968;BME280;46511;53.148;8.204;2023-06-01T07:36:02;102265.50;;;16.16;100.00
48968;BME280;46511;53.148;8.204;2023-06-01T07:38:35;102255.84;;;16.14;100.00
48968;BME280;46511;53.148;8.204;2023-06-01T07:41:08;102253.72;;;16.35;100.00
48968;BME280;46511;53.148;8.204;2023-06-01T07:43:40;102260.44;;;16.57;100.00
48968;BME280;46511;53.148;8.204;2023-06-01T07:46:12;102258.59;;;16.90;100.00
48968;BME280;46511;53.148;8.204;2023-06-01T07:48:43;102260.94;;;16.64;100.00
48968;BME280;46511;53.148;8.204;2023-06-01T07:51:15;102264.59;;;16.63;100.00
48968;BME280;46511;53.148;8.204;2023-06-01T07:53:46;102257.91;;;16.24;100.00
48968;BME280;46511;53.148;8.204;2023-06-01T07:56:17;102255.19;;;15.77;100.00
48968;BME280;46511;53.148;8.204;2023-06-01T07:58:49;102251.13;;;16.49;100.00
48968;BME280;46511;53.148;8.204;2023-06-01T08:01:21;102250.72;;;16.41;100.00
48968;BME280;46511;53.148;8.204;2023-06-01T08:03:52;102265.22;;;16.68;100.00
48968;BME280;46511;53.148;8.204;2023-06-01T08:06:24;102262.91;;;16.31;100.00
48968;BME280;46511;53.148;8.204;2023-06-01T08:08:55;102262.56;;;15.74;100.00
48968;BME280;46511;53.148;8.204;2023-06-01T08:11:27;102256.88;;;16.11;100.00
48968;BME280;46511;53.148;8.204;2023-06-01T08:13:58;102255.22;;;15.93;100.00
48968;BME280;46511;53.148;8.204;2023-06-01T08:16:35;102263.41;;;15.90;100.00
48968;BME280;46511;53.148;8.204;2023-06-01T08:19:01;102253.69;;;16.20;100.00
48968;BME280;46511;53.148;8.204;2023-06-01T08:21:34;102265.69;;;16.13;100.00
48968;BME280;46511;53.148;8.204;2023-06-01T08:24:06;102258.66;;;15.79;100.00
48968;BME280;46511;53.148;8.204;2023-06-01T08:26:39;102257.03;;;16.08;100.00
48968;BME280;46511;53.148;8.204;2023-06-01T08:29:10;102262.78;;;16.94;100.00
48968;BME280;46511;53.148;8.204;2023-06-01T08:31:42;102253.34;;;16.56;100.00
48968;BME280;46511;53.148;8.204;2023-06-01T08:34:08;102250.69;;;16.87;100.00
48968;BME280;46511;53.148;8.204;2023-06-01T08:36:40;102242.31;;;16.77;100.00
48968;BME280;46511;53.148;8.204;2023-06-01T08:39:20;102241.75;;;16.56;100.00
48968;BME280;46511;53.148;8.204;2023-06-01T08:44:27;102247.69;;;16.31;100.00
48968;BME280;46511;53.148;8.204;2023-06-01T08:47:09;102246.31;;;16.08;100.00
48968;BME280;46511;53.148;8.204;2023-06-01T08:49:41;102240.13;;;16.53;100.00
48968;BME280;46511;53.148;8.204;2023-06-01T08:52:14;102236.44;;;16.24;100.00
48968;BME280;46511;53.148;8.204;2023-06-01T08:54:51;102244.91;;;16.33;100.00
48968;BME280;46511;53.148;8.204;2023-06-01T08:57:23;102247.13;;;16.56;100.00
48968;BME280;46511;53.148;8.204;2023-06-01T08:59:54;102242.31;;;17.07;100.00
48968;BME280;46511;53.148;8.204;2023-06-01T09:02:26;102239.56;;;16.78;100.00
48968;BME280;46511;53.148;8.204;2023-06-01T09:04:58;102242.94;;;16.82;100.00
48968;BME280;46511;53.148;8.204;2023-06-01T09:07:25;102237.16;;;17.61;100.00
48968;BME280;46511;53.148;8.204;2023-06-01T09:09:57;102239.25;;;16.99;100.00
48968;BME280;46511;53.148;8.204;2023-06-01T09:12:29;102240.09;;;17.72;100.00
48968;BME280;46511;53.148;8.204;2023-06-01T09:15:11;102233.16;;;18.09;100.00
48968;BME280;46511;53.148;8.204;2023-06-01T09:17:44;102236.59;;;18.25;100.00
48968;BME280;46511;53.148;8.204;2023-06-01T09:20:24;102233.13;;;17.96;100.00
48968;BME280;46511;53.148;8.204;2023-06-01T09:22:57;102237.25;;;17.17;100.00
48968;BME280;46511;53.148;8.204;2023-06-01T09:25:29;102238.88;;;17.90;100.00
48968;BME280;46511;53.148;8.204;2023-06-01T09:28:00;102240.13;;;18.26;100.00
48968;BME280;46511;53.148;8.204;2023-06-01T09:30:42;102230.63;;;18.47;100.00
48968;BME280;46511;53.148;8.204;2023-06-01T09:33:16;102227.34;;;18.03;100.00
48968;BME280;46511;53.148;8.204;2023-06-01T09:35:50;102227.41;;;18.15;100.00
48968;BME280;46511;53.148;8.204;2023-06-01T09:38:22;102236.19;;;17.90;100.00
48968;BME280;46511;53.148;8.204;2023-06-01T09:40:56;102230.44;;;18.23;100.00
48968;BME280;46511;53.148;8.204;2023-06-01T09:43:29;102226.81;;;17.83;100.00
48968;BME280;46511;53.148;8.204;2023-06-01T09:46:09;102224.69;;;17.31;100.00
48968;BME280;46511;53.148;8.204;2023-06-01T09:48:44;102235.25;;;17.63;100.00
48968;BME280;46511;53.148;8.204;2023-06-01T09:51:22;102219.47;;;18.93;100.00
48968;BME280;46511;53.148;8.204;2023-06-01T09:54:00;102228.50;;;18.67;99.19
48968;BME280;46511;53.148;8.204;2023-06-01T09:56:26;102211.94;;;18.98;98.65
48968;BME280;46511;53.148;8.204;2023-06-01T09:59:12;102212.72;;;19.26;95.04
48968;BME280;46511;53.148;8.204;2023-06-01T10:01:46;102212.00;;;18.44;97.87
48968;BME280;46511;53.148;8.204;2023-06-01T10:04:22;102212.00;;;18.44;99.33
48968;BME280;46511;53.148;8.204;2023-06-01T10:06:51;102205.16;;;19.05;93.88
48968;BME280;46511;53.148;8.204;2023-06-01T10:09:25;102205.75;;;18.31;99.46
48968;BME280;46511;53.148;8.204;2023-06-01T10:11:53;102202.00;;;18.46;98.27
48968;BME280;46511;53.148;8.204;2023-06-01T10:14:25;102202.97;;;18.45;98.54
48968;BME280;46511;53.148;8.204;2023-06-01T10:16:56;102201.59;;;18.92;98.61
48968;BME280;46511;53.148;8.204;2023-06-01T10:19:29;102195.16;;;19.07;95.94
48968;BME280;46511;53.148;8.204;2023-06-01T10:22:02;102192.75;;;19.03;95.69
48968;BME280;46511;53.148;8.204;2023-06-01T10:24:34;102204.91;;;18.43;99.77
48968;BME280;46511;53.148;8.204;2023-06-01T10:27:19;102201.25;;;18.84;98.29
48968;BME280;46511;53.148;8.204;2023-06-01T10:29:55;102194.88;;;18.72;99.67
48968;BME280;46511;53.148;8.204;2023-06-01T10:35:07;102195.50;;;20.38;89.84
48968;BME280;46511;53.148;8.204;2023-06-01T10:37:41;102191.16;;;20.95;83.54
48968;BME280;46511;53.148;8.204;2023-06-01T10:42:47;102185.16;;;20.32;76.95
48968;BME280;46511;53.148;8.204;2023-06-01T10:48:05;102180.84;;;21.22;72.53
48968;BME280;46511;53.148;8.204;2023-06-01T10:50:33;102180.25;;;21.19;69.10
48968;BME280;46511;53.148;8.204;2023-06-01T10:59:09;102176.69;;;19.52;80.29
48968;BME280;46511;53.148;8.204;2023-06-01T11:01:40;102180.69;;;19.34;83.66
48968;BME280;46511;53.148;8.204;2023-06-01T11:04:13;102184.97;;;19.49;86.54
48968;BME280;46511;53.148;8.204;2023-06-01T11:06:44;102186.84;;;19.85;83.58
48968;BME280;46511;53.148;8.204;2023-06-01T11:09:16;102188.75;;;20.68;80.27
48968;BME280;46511;53.148;8.204;2023-06-01T11:14:22;102180.47;;;19.11;84.34
48968;BME280;46511;53.148;8.204;2023-06-01T11:16:56;102177.16;;;19.83;83.15
48968;BME280;46511;53.148;8.204;2023-06-01T11:19:56;102185.44;;;20.16;76.44
48968;BME280;46511;53.148;8.204;2023-06-01T11:22:36;102188.66;;;19.35;81.75
48968;BME280;46511;53.148;8.204;2023-06-01T11:25:09;102180.31;;;19.77;80.98
48968;BME280;46511;53.148;8.204;2023-06-01T11:27:42;102182.69;;;20.05;78.98
48968;BME280;46511;53.148;8.204;2023-06-01T11:30:18;102182.69;;;20.29;77.99
48968;BME280;46511;53.148;8.204;2023-06-01T11:32:49;102173.84;;;20.51;73.39
48968;BME280;46511;53.148;8.204;2023-06-01T11:35:23;102177.16;;;20.54;72.82
48968;BME280;46511;53.148;8.204;2023-06-01T11:37:57;102172.34;;;19.99;82.32
48968;BME280;46511;53.148;8.204;2023-06-01T11:40:29;102174.88;;;20.13;79.59
48968;BME280;46511;53.148;8.204;2023-06-01T11:43:00;102175.69;;;21.19;71.96
48968;BME280;46511;53.148;8.204;2023-06-01T11:45:32;102176.25;;;20.43;72.79
48968;BME280;46511;53.148;8.204;2023-06-01T11:48:09;102170.41;;;20.95;71.00
48968;BME280;46511;53.148;8.204;2023-06-01T11:50:45;102173.47;;;21.02;70.36
48968;BME280;46511;53.148;8.204;2023-06-01T11:53:17;102169.56;;;20.36;74.22
48968;BME280;46511;53.148;8.204;2023-06-01T11:55:52;102172.47;;;20.21;75.39
48968;BME280;46511;53.148;8.204;2023-06-01T12:01:00;102171.28;;;19.89;78.41
48968;BME280;46511;53.148;8.204;2023-06-01T12:03:33;102160.63;;;20.59;74.85
48968;BME280;46511;53.148;8.204;2023-06-01T12:06:22;102162.78;;;20.89;70.97
48968;BME280;46511;53.148;8.204;2023-06-01T12:08:54;102158.88;;;21.16;71.35
48968;BME280;46511;53.148;8.204;2023-06-01T12:11:27;102159.19;;;20.77;68.04
48968;BME280;46511;53.148;8.204;2023-06-01T12:13:59;102166.38;;;21.57;65.37
48968;BME280;46511;53.148;8.204;2023-06-01T12:19:43;102163.25;;;19.76;79.63
48968;BME280;46511;53.148;8.204;2023-06-01T12:22:11;102160.31;;;19.92;79.22
48968;BME280;46511;53.148;8.204;2023-06-01T12:24:43;102154.41;;;18.99;83.04
48968;BME280;46511;53.148;8.204;2023-06-01T12:27:18;102154.31;;;18.88;85.46
48968;BME280;46511;53.148;8.204;2023-06-01T12:29:50;102151.16;;;18.94;85.41
48968;BME280;46511;53.148;8.204;2023-06-01T12:32:22;102157.25;;;19.73;82.51
48968;BME280;46511;53.148;8.204;2023-06-01T12:35:03;102160.19;;;19.44;87.24
48968;BME280;46511;53.148;8.204;2023-06-01T12:37:37;102164.53;;;19.34;88.47
48968;BME280;46511;53.148;8.204;2023-06-01T12:40:03;102160.44;;;18.77;93.89
48968;BME280;46511;53.148;8.204;2023-06-01T12:42:39;102162.16;;;18.91;90.99
48968;BME280;46511;53.148;8.204;2023-06-01T12:45:08;102168.41;;;18.92;93.48
48968;BME280;46511;53.148;8.204;2023-06-01T12:47:40;102168.34;;;19.68;85.36
48968;BME280;46511;53.148;8.204;2023-06-01T12:50:08;102166.66;;;20.15;81.29
48968;BME280;46511;53.148;8.204;2023-06-01T12:52:41;102169.38;;;19.91;77.53
48968;BME280;46511;53.148;8.204;2023-06-01T12:55:15;102168.16;;;19.33;82.26
48968;BME280;46511;53.148;8.204;2023-06-01T12:57:53;102168.91;;;19.97;79.72
48968;BME280;46511;53.148;8.204;2023-06-01T13:00:25;102166.44;;;19.32;81.11
48968;BME280;46511;53.148;8.204;2023-06-01T13:02:56;102160.88;;;18.71;84.00
48968;BME280;46511;53.148;8.204;2023-06-01T13:05:28;102176.44;;;18.26;92.97
48968;BME280;46511;53.148;8.204;2023-06-01T13:07:59;102165.88;;;18.63;90.77
48968;BME280;46511;53.148;8.204;2023-06-01T13:10:26;102162.38;;;19.01;88.24
48968;BME280;46511;53.148;8.204;2023-06-01T13:12:57;102160.22;;;18.80;87.39
48968;BME280;46511;53.148;8.204;2023-06-01T13:15:29;102162.13;;;18.66;86.55
48968;BME280;46511;53.148;8.204;2023-06-01T13:18:00;102164.22;;;19.00;86.49
48968;BME280;46511;53.148;8.204;2023-06-01T13:20:26;102157.91;;;18.62;91.04
48968;BME280;46511;53.148;8.204;2023-06-01T13:22:58;102160.41;;;19.41;83.85
48968;BME280;46511;53.148;8.204;2023-06-01T13:25:33;102161.38;;;19.89;82.02
48968;BME280;46511;53.148;8.204;2023-06-01T13:28:00;102162.16;;;19.29;84.21
48968;BME280;46511;53.148;8.204;2023-06-01T13:30:31;102161.31;;;18.78;86.79
48968;BME280;46511;53.148;8.204;2023-06-01T13:33:04;102147.63;;;19.81;81.96
48968;BME280;46511;53.148;8.204;2023-06-01T13:35:37;102149.72;;;19.89;80.08
48968;BME280;46511;53.148;8.204;2023-06-01T13:38:08;102142.41;;;18.52;88.90
48968;BME280;46511;53.148;8.204;2023-06-01T13:40:34;102150.53;;;18.91;87.35
48968;BME280;46511;53.148;8.204;2023-06-01T13:43:06;102150.00;;;19.73;85.86
48968;BME280;46511;53.148;8.204;2023-06-01T13:45:38;102149.47;;;18.80;89.80